Oakland, MD

8:58 AM EST on November 20, 2019 (GMT -0500)
Oakland

Weather History for K2G4 - October, 2019

Change the Weather History Date:

Sunday, October 20, 2019

  Actual Average (KMGW) Record (KMGW)
Temperature  
Mean Temperature 48 °F -  
Max Temperature 53 °F 60 °F 86 °F (2016)
Min Temperature 42 °F 40 °F 18 °F (1972)
Degree Days  
Heating Degree Days 18    
Moisture  
Dew Point 45 °F    
Average Humidity 92    
Maximum Humidity 100    
Minimum Humidity 71    
Precipitation  
Precipitation 0.00 in - - ()
Sea Level Pressure  
Sea Level Pressure 29.94 in    
Wind  
Wind Speed 5 mph ()    
Max Wind Speed 12 mph    
Max Gust Speed 16 mph    
Visibility 8.6 miles    
Events      
Averages and records for this station are not official NWS values.
T = Trace of Precipitation, MM = Missing Value Source: Averaged Metar Reports

Daily Weather History Graph

Daily Weather History Graph

Search for Another Location

Airport or City:

Astronomy

Oct. 20, 2019 Rise Set
Actual Time 7:32 AM EDT 6:31 PM EDT
Civil Twilight 7:05 AM EDT 6:58 PM EDT
Nautical Twilight 6:33 AM EDT 7:29 PM EDT
Astronomical Twilight 6:02 AM EDT 8:01 PM EDT
Moon 11:39 PM EDT 1:57 PM EDT
Length of Visible Light 11h 53m
Length of Day
10h 58m
Waning Gibbous, 59% of the Moon is Illuminated
Oct 20
Waning Gibbous
Oct 21
Last Quarter
Oct 27
New
Nov 4
First Quarter
Nov 12
Full

Hourly Weather History & Observations

Time (EDT) Temp. Windchill Dew Point Humidity Pressure Visibility Wind Dir Wind Speed Gust Speed Precip Events Conditions
12:05 AM 46.4 °F 42.4 °F 37.4 °F 71% 29.94 in 10.0 mi SSE 8.1 mph - N/A   Clear
12:25 AM 46.4 °F 43.5 °F 37.4 °F 71% 29.94 in 10.0 mi SE 5.8 mph - N/A   Clear
12:45 AM 46.4 °F 42.4 °F 37.4 °F 71% 29.94 in 10.0 mi SE 8.1 mph - N/A   Clear
1:05 AM 44.6 °F 40.7 °F 37.4 °F 76% 29.93 in 10.0 mi SSE 6.9 mph - N/A   Clear
1:25 AM 46.4 °F 42.9 °F 37.4 °F 71% 29.93 in 10.0 mi SSE 6.9 mph - N/A   Clear
1:45 AM 46.4 °F 43.5 °F 41.0 °F 81% 29.92 in 10.0 mi South 5.8 mph - N/A   Clear
2:05 AM 44.6 °F 41.4 °F 41.0 °F 87% 29.92 in 10.0 mi South 5.8 mph - N/A   Clear
2:25 AM 46.4 °F 45.2 °F 39.2 °F 76% 29.91 in 10.0 mi SSW 3.5 mph - N/A   Clear
2:45 AM 46.4 °F 42.9 °F 41.0 °F 81% 29.90 in 10.0 mi SSE 6.9 mph - N/A   Clear
3:05 AM 44.6 °F 41.4 °F 41.0 °F 87% 29.91 in 10.0 mi SSE 5.8 mph - N/A   Clear
3:25 AM 44.6 °F 41.4 °F 41.0 °F 87% 29.91 in 10.0 mi SSE 5.8 mph - N/A   Clear
3:45 AM 44.6 °F 41.4 °F 42.8 °F 93% 29.90 in 10.0 mi SSE 5.8 mph - N/A   Clear
4:05 AM 44.6 °F 40.7 °F 41.0 °F 87% 29.89 in 10.0 mi SE 6.9 mph - N/A   Clear
4:25 AM 44.6 °F 41.4 °F 41.0 °F 87% 29.88 in 10.0 mi SE 5.8 mph - N/A   Clear
4:45 AM 44.6 °F 40.7 °F 41.0 °F 87% 29.89 in 10.0 mi SSE 6.9 mph - N/A   Clear
5:05 AM 42.8 °F 40.1 °F 42.8 °F 100% 29.90 in 10.0 mi SE 4.6 mph - N/A   Clear
5:25 AM 44.6 °F 40.7 °F 42.8 °F 93% 29.91 in 10.0 mi SSE 6.9 mph - N/A   Scattered Clouds
5:45 AM 44.6 °F 42.2 °F 42.8 °F 93% 29.91 in 10.0 mi SSE 4.6 mph - N/A   Mostly Cloudy
6:05 AM 42.8 °F 41.1 °F 42.8 °F 100% 29.91 in 10.0 mi SE 3.5 mph - N/A   Scattered Clouds
6:25 AM 44.6 °F 42.2 °F 42.8 °F 93% 29.92 in 10.0 mi SSE 4.6 mph - N/A   Mostly Cloudy
6:45 AM 42.8 °F 39.3 °F 42.8 °F 100% 29.92 in 10.0 mi SE 5.8 mph - N/A   Overcast
7:05 AM 42.8 °F 41.1 °F 42.8 °F 100% 29.92 in 5.0 mi SE 3.5 mph - N/A   Mostly Cloudy
7:25 AM 42.8 °F 40.1 °F 42.8 °F 100% 29.91 in 7.0 mi SE 4.6 mph - N/A   Mostly Cloudy
7:45 AM 42.8 °F 40.1 °F 42.8 °F 100% 29.91 in 7.0 mi ESE 4.6 mph - N/A   Scattered Clouds
8:05 AM 42.8 °F 41.1 °F 42.8 °F 100% 29.92 in 7.0 mi East 3.5 mph - N/A   Scattered Clouds
8:25 AM 44.6 °F 42.2 °F 44.6 °F 100% 29.92 in 10.0 mi ESE 4.6 mph - N/A   Mostly Cloudy
8:45 AM 44.6 °F 40.2 °F 44.6 °F 100% 29.91 in 7.0 mi ESE 8.1 mph - N/A   Mostly Cloudy
9:05 AM 44.6 °F 39.7 °F 44.6 °F 100% 29.93 in 2.5 mi SE 9.2 mph - N/A   Overcast
9:25 AM 44.6 °F 39.2 °F 44.6 °F 100% 29.93 in 10.0 mi SE 10.4 mph - N/A   Mostly Cloudy
9:45 AM 44.6 °F 39.7 °F 44.6 °F 100% 29.93 in 7.0 mi SE 9.2 mph - N/A   Mostly Cloudy
10:05 AM 44.6 °F 38.8 °F 44.6 °F 100% 29.93 in 7.0 mi SE 11.5 mph - N/A   Mostly Cloudy
10:25 AM 46.4 °F 41.5 °F 46.4 °F 100% 29.93 in 10.0 mi SE 10.4 mph - N/A   Scattered Clouds
10:45 AM 46.4 °F 41.9 °F 46.4 °F 100% 29.93 in 10.0 mi SE 9.2 mph 16.1 mph N/A   Clear
11:05 AM 50.0 °F - 48.2 °F 94% 29.93 in 10.0 mi SE 10.4 mph - N/A   Clear
11:25 AM 50.0 °F - 48.2 °F 94% 29.93 in 10.0 mi SE 11.5 mph - N/A   Clear
11:45 AM 51.8 °F - 48.2 °F 88% 29.93 in 10.0 mi ESE 10.4 mph - N/A   Clear
12:05 PM 50.0 °F - 48.2 °F 94% 29.93 in 10.0 mi SE 9.2 mph 16.1 mph N/A   Scattered Clouds
12:25 PM 51.8 °F - 48.2 °F 88% 29.93 in 10.0 mi SE 9.2 mph - N/A   Scattered Clouds
12:45 PM 51.8 °F - 48.2 °F 88% 29.94 in 10.0 mi SSE 6.9 mph - N/A   Mostly Cloudy
1:05 PM 50.0 °F - 48.2 °F 94% 29.93 in 10.0 mi SE 9.2 mph - N/A   Mostly Cloudy
1:25 PM 50.0 °F - 48.2 °F 94% 29.93 in 10.0 mi SE 10.4 mph - N/A   Scattered Clouds
1:45 PM 51.8 °F - 48.2 °F 88% 29.93 in 10.0 mi SSE 10.4 mph - N/A   Scattered Clouds
2:05 PM 50.0 °F - 48.2 °F 94% 29.93 in 10.0 mi SSE 8.1 mph - N/A   Mostly Cloudy
2:25 PM 50.0 °F - 48.2 °F 94% 29.93 in 10.0 mi SE 3.5 mph - N/A   Mostly Cloudy
2:45 PM 51.8 °F - 48.2 °F 88% 29.92 in 10.0 mi SE 5.8 mph - N/A   Overcast
3:05 PM 51.8 °F - 48.2 °F 88% 29.93 in 10.0 mi SE 3.5 mph - N/A   Scattered Clouds
3:45 PM 53.6 °F - 50.0 °F 88% 29.93 in 10.0 mi ESE 4.6 mph - N/A   Clear
4:05 PM 53.6 °F - 50.0 °F 88% 29.93 in 10.0 mi Calm Calm - N/A   Clear
4:25 PM 53.6 °F - 50.0 °F 88% 29.94 in 10.0 mi Calm Calm - N/A   Clear
4:45 PM 53.6 °F - 50.0 °F 88% 29.94 in 10.0 mi Calm Calm - N/A   Clear
5:05 PM 53.6 °F - 50.0 °F 88% 29.94 in 10.0 mi Calm Calm - N/A   Clear
5:25 PM 53.6 °F - 50.0 °F 88% 29.95 in 10.0 mi Calm Calm - N/A   Clear
5:45 PM 53.6 °F - 50.0 °F 88% 29.95 in 10.0 mi Calm Calm - N/A   Scattered Clouds
6:05 PM 53.6 °F - 50.0 °F 88% 29.95 in 2.0 mi Calm Calm - N/A   Clear
6:25 PM 53.6 °F - 50.0 °F 88% 29.95 in 10.0 mi Calm Calm - N/A   Clear
6:45 PM 51.8 °F - 50.0 °F 94% 29.96 in 10.0 mi Calm Calm - N/A   Clear
7:05 PM 51.8 °F - 50.0 °F 94% 29.97 in 10.0 mi Calm Calm - N/A   Clear
7:25 PM 50.0 °F - 50.0 °F 100% 29.98 in 10.0 mi Calm Calm - N/A   Clear
7:45 PM 51.8 °F - 50.0 °F 94% 29.98 in 10.0 mi Calm Calm - N/A   Mostly Cloudy
8:05 PM 51.8 °F - 50.0 °F 94% 29.99 in 10.0 mi Calm Calm - N/A   Scattered Clouds
8:25 PM 48.2 °F - 48.2 °F 100% 29.99 in 10.0 mi Calm Calm - N/A   Clear
8:45 PM 46.4 °F 45.2 °F 46.4 °F 100% 29.99 in 1.8 mi SSE 3.5 mph - N/A   Unknown
9:05 PM 46.4 °F 45.2 °F 46.4 °F 100% 29.99 in 0.8 mi SE 3.5 mph - N/A   Unknown
9:25 PM 44.6 °F 42.2 °F 44.6 °F 100% 29.99 in 0.2 mi SSE 4.6 mph - N/A   Unknown
9:45 PM 42.8 °F - 42.8 °F 100% 30.00 in 0.2 mi Calm Calm - N/A   Unknown
10:05 PM 42.8 °F 40.1 °F 42.8 °F 100% 30.00 in 0.2 mi SE 4.6 mph - N/A   Unknown
10:25 PM 44.6 °F - 44.6 °F 100% 30.02 in 0.5 mi Calm Calm - N/A   Unknown
10:45 PM 46.4 °F - 46.4 °F 100% 30.02 in 4.0 mi Calm Calm - N/A   Clear
11:05 PM 48.2 °F - 48.2 °F 100% 30.04 in 10.0 mi Calm Calm - N/A   Clear
11:25 PM 48.2 °F - 48.2 °F 100% 30.03 in 10.0 mi Calm Calm - N/A   Clear
11:45 PM 50.0 °F - 50.0 °F 100% 30.03 in 10.0 mi Calm Calm - N/A   Clear